Time;durP1;ratioP1;P1;durP2;ratioP2;P2;SDS_P1;SDS_P2;PMS_P1;PMS_P2;Temp;Humidity;BMP_temperature;BMP_pressure;BME280_temperature;BME280_humidity;BME280_pressure;Samples;Min_cycle;Max_cycle;Signal;HPM_P1;HPM_P2
2021/03/15 00:01:09;;;;;;;17.08;3.00;;;;;;;7.84;74.95;101298.00;5073710;28;20084;-67
2021/03/15 00:03:38;;;;;;;18.80;3.75;;;;;;;7.71;75.21;101295.84;5073425;28;20044;-75
2021/03/15 00:06:06;;;;;;;17.33;3.45;;;;;;;7.77;75.82;101291.16;5090369;28;20048;-73
2021/03/15 00:08:34;;;;;;;14.48;2.42;;;;;;;7.84;75.44;101287.03;5061743;28;20040;-70
2021/03/15 00:11:01;;;;;;;15.23;2.72;;;;;;;7.82;75.74;101278.25;5061745;28;20048;-75
2021/03/15 00:13:28;;;;;;;16.02;3.50;;;;;;;7.76;75.68;101282.13;5060867;28;20055;-73
2021/03/15 00:15:57;;;;;;;16.95;2.58;;;;;;;7.86;75.62;101286.75;5077621;28;20048;-75
2021/03/15 00:18:24;;;;;;;21.05;3.00;;;;;;;7.87;76.19;101280.16;5077779;28;20040;-71
2021/03/15 00:20:52;;;;;;;22.73;3.03;;;;;;;7.93;76.21;101276.28;5077374;28;20052;-69
2021/03/15 00:23:19;;;;;;;14.60;2.92;;;;;;;7.81;76.19;101271.13;5095481;28;20501;-70
2021/03/15 00:25:46;;;;;;;21.48;3.97;;;;;;;7.65;76.80;101277.75;5095265;28;20051;-74
2021/03/15 00:28:13;;;;;;;17.83;2.47;;;;;;;7.60;77.79;101279.72;5076803;28;20059;-79
2021/03/15 00:30:40;;;;;;;17.67;3.55;;;;;;;7.81;77.62;101278.53;5076646;28;20055;-74
2021/03/15 00:33:07;;;;;;;17.52;3.00;;;;;;;7.82;77.30;101277.44;5077297;28;20110;-76
2021/03/15 00:35:34;;;;;;;17.30;3.03;;;;;;;7.79;77.86;101258.81;5095395;28;20051;-76
2021/03/15 00:38:01;;;;;;;19.42;3.08;;;;;;;7.94;77.22;101255.97;5094927;28;20044;-80
2021/03/15 00:40:28;;;;;;;19.63;2.72;;;;;;;7.94;77.63;101275.16;5110636;28;20474;-75
2021/03/15 00:42:56;;;;;;;18.98;3.63;;;;;;;7.83;78.14;101265.34;5077623;28;20044;-71
2021/03/15 00:45:24;;;;;;;17.50;3.22;;;;;;;7.74;78.47;101269.81;5077224;28;20521;-71
2021/03/15 00:47:54;;;;;;;22.75;3.50;;;;;;;7.89;79.15;101269.72;5095135;28;20056;-73
2021/03/15 00:50:40;;;;;;;18.08;2.80;;;;;;;8.00;79.02;101236.44;5095237;28;20075;-71
2021/03/15 00:53:09;;;;;;;14.35;2.75;;;;;;;8.02;78.13;101254.56;5076603;28;20056;-68
2021/03/15 00:55:39;;;;;;;13.40;3.13;;;;;;;8.11;78.57;101250.94;5075096;28;20059;-73
2021/03/15 00:58:06;;;;;;;16.83;3.08;;;;;;;8.05;78.46;101243.84;5077352;28;20044;-67
2021/03/15 01:00:36;;;;;;;20.48;3.00;;;;;;;8.16;79.02;101228.94;5073616;28;20482;-69
2021/03/15 01:03:15;;;;;;;17.10;3.40;;;;;;;7.98;78.06;101233.16;5061716;28;20466;-67
2021/03/15 01:05:50;;;;;;;21.35;3.70;;;;;;;7.92;79.43;101223.34;5075813;28;20505;-68
2021/03/15 01:08:38;;;;;;;17.80;2.90;;;;;;;7.86;80.08;101218.97;5080429;28;20066;-73
2021/03/15 01:11:11;;;;;;;18.77;3.17;;;;;;;7.97;80.01;101223.31;5094067;28;20059;-75
2021/03/15 01:13:42;;;;;;;18.55;3.67;;;;;;;8.10;79.19;101215.53;5075760;28;20048;-71
2021/03/15 01:16:10;;;;;;;16.55;3.15;;;;;;;8.08;79.02;101213.09;5076298;28;20063;-73
2021/03/15 01:18:38;;;;;;;22.67;3.47;;;;;;;8.00;80.18;101209.03;5076273;28;20137;-70
2021/03/15 01:21:06;;;;;;;14.48;3.33;;;;;;;7.89;80.15;101204.72;5075845;28;20052;-73
2021/03/15 01:23:33;;;;;;;24.80;4.07;;;;;;;7.95;80.23;101194.50;5076028;28;20053;-69
2021/03/15 01:26:00;;;;;;;14.38;2.75;;;;;;;8.18;80.60;101190.22;5094859;28;20398;-74
2021/03/15 01:28:26;;;;;;;14.68;3.60;;;;;;;8.16;79.47;101200.69;5093965;28;20052;-72
2021/03/15 01:30:54;;;;;;;19.70;3.45;;;;;;;8.14;79.73;101198.25;5076132;28;20426;-70
2021/03/15 01:33:21;;;;;;;17.98;3.50;;;;;;;8.26;79.57;101198.72;5076222;28;20059;-69
2021/03/15 01:35:48;;;;;;;17.73;3.45;;;;;;;8.07;79.78;101191.44;5094259;28;20048;-73
2021/03/15 01:38:18;;;;;;;24.02;3.38;;;;;;;7.93;80.34;101174.81;5076586;28;20048;-70
2021/03/15 01:40:45;;;;;;;13.98;2.72;;;;;;;8.17;80.70;101175.72;5076339;28;20044;-68
2021/03/15 01:43:13;;;;;;;17.08;2.95;;;;;;;8.07;80.48;101186.78;5094176;28;20063;-75
2021/03/15 01:45:40;;;;;;;19.33;3.30;;;;;;;7.90;81.73;101176.19;5075838;28;20051;-72
2021/03/15 01:48:14;;;;;;;15.85;2.80;;;;;;;7.99;81.79;101170.91;5094151;28;20051;-71
2021/03/15 01:50:47;;;;;;;20.00;3.75;;;;;;;8.16;82.04;101173.25;5093389;28;20044;-72
2021/03/15 01:53:15;;;;;;;12.95;3.17;;;;;;;8.14;81.76;101170.81;5094151;28;20055;-70
2021/03/15 01:55:45;;;;;;;17.48;3.45;;;;;;;8.34;81.94;101159.69;5075749;28;20048;-73
2021/03/15 01:58:15;;;;;;;16.38;3.33;;;;;;;8.38;81.58;101170.91;5076793;28;20047;-69
2021/03/15 02:00:43;;;;;;;17.73;3.05;;;;;;;8.32;81.41;101153.66;5075917;28;20051;-68
2021/03/15 02:03:16;;;;;;;16.63;3.17;;;;;;;8.29;81.51;101158.91;5076245;28;20051;-73
2021/03/15 02:05:44;;;;;;;12.68;2.55;;;;;;;8.34;81.83;101154.19;5075123;28;20055;-74
2021/03/15 02:08:12;;;;;;;15.52;3.05;;;;;;;8.23;82.51;101144.38;5076047;28;20055;-74
2021/03/15 02:10:39;;;;;;;17.92;3.40;;;;;;;8.32;82.26;101139.94;5094326;28;20055;-74
2021/03/15 02:17:57;;;;;;;17.70;3.53;;;;;;;8.46;81.57;101135.41;5094022;28;20051;-75
2021/03/15 02:20:43;;;;;;;19.60;3.72;;;;;;;8.43;81.98;101138.75;5078206;28;20097;-70
2021/03/15 02:23:11;;;;;;;15.23;3.03;;;;;;;8.44;83.10;101134.09;5100088;28;20063;-74
2021/03/15 02:30:03;;;;;;;17.52;4.10;;;;;;;8.57;83.62;101125.97;5096140;28;20355;-73
2021/03/15 02:32:48;;;;;;;19.73;3.40;;;;;;;8.40;82.87;101125.63;5077473;28;20056;-68
2021/03/15 02:35:20;;;;;;;15.32;3.70;;;;;;;8.51;82.31;101131.78;5079464;28;20051;-68
2021/03/15 02:38:09;;;;;;;15.27;3.90;;;;;;;8.30;83.93;101119.41;5097071;28;20059;-68
2021/03/15 02:40:40;;;;;;;18.77;3.83;;;;;;;8.23;84.93;101116.94;5062438;28;20048;-70
2021/03/15 02:47:32;;;;;;;12.60;3.45;;;;;;;8.38;85.41;101111.34;5091682;28;20044;-70
2021/03/15 02:50:03;;;;;;;15.93;3.45;;;;;;;8.54;84.03;101115.56;5057738;28;20056;-73
2021/03/15 02:52:32;;;;;;;20.38;3.78;;;;;;;8.51;84.47;101113.41;5093004;28;20048;-69
2021/03/15 02:55:01;;;;;;;18.57;3.90;;;;;;;8.47;85.59;101104.09;5074606;28;20068;-72
2021/03/15 03:02:05;;;;;;;15.63;3.42;;;;;;;8.27;86.29;101100.75;5092689;28;20048;-66
2021/03/15 03:04:32;;;;;;;13.32;3.60;;;;;;;8.27;86.81;101095.25;5074466;28;20052;-73
2021/03/15 03:07:00;;;;;;;14.65;3.55;;;;;;;8.35;86.66;101089.94;5073954;28;20059;-77
2021/03/15 03:09:28;;;;;;;14.77;4.50;;;;;;;8.40;86.45;101086.34;5074509;28;20040;-74
2021/03/15 03:11:55;;;;;;;13.85;4.00;;;;;;;8.51;86.64;101085.13;5057730;28;20048;-75
2021/03/15 03:14:24;;;;;;;14.82;3.55;;;;;;;8.31;87.02;101077.94;5058125;28;20047;-71
2021/03/15 03:16:51;;;;;;;18.38;3.80;;;;;;;8.41;87.29;101080.56;5074162;28;20048;-77
2021/03/15 03:19:22;;;;;;;17.10;4.07;;;;;;;8.48;87.07;101086.53;5075107;28;20379;-75
2021/03/15 03:21:50;;;;;;;20.80;3.75;;;;;;;8.57;86.49;101078.47;5092373;28;20068;-74
2021/03/15 03:24:18;;;;;;;16.00;4.15;;;;;;;8.61;87.28;101076.78;5074051;28;20052;-68
2021/03/15 03:26:45;;;;;;;20.90;5.05;;;;;;;8.74;86.68;101073.34;5074494;28;20394;-69
2021/03/15 03:29:13;;;;;;;20.02;4.55;;;;;;;8.84;86.02;101071.28;5074169;28;20048;-73
2021/03/15 03:31:43;;;;;;;17.55;4.30;;;;;;;8.68;86.62;101088.25;5074470;28;20040;-73
2021/03/15 03:34:11;;;;;;;15.90;4.45;;;;;;;8.79;86.90;101082.34;5092305;28;20348;-69
2021/03/15 03:36:38;;;;;;;13.95;4.78;;;;;;;8.61;87.09;101080.34;5092750;28;20048;-75
2021/03/15 03:39:09;;;;;;;19.33;4.78;;;;;;;8.67;87.89;101079.19;5073827;28;20059;-76
2021/03/15 03:41:36;;;;;;;18.70;4.80;;;;;;;8.55;87.72;101088.94;5093100;28;20067;-69
2021/03/15 03:44:10;;;;;;;18.08;5.07;;;;;;;8.63;88.30;101096.56;5081201;28;20044;-70
2021/03/15 03:46:41;;;;;;;18.23;5.22;;;;;;;8.46;88.56;101091.50;5079425;28;20056;-67
2021/03/15 03:49:09;;;;;;;19.50;4.80;;;;;;;8.60;88.97;101099.84;5081042;28;20052;-71
2021/03/15 03:51:44;;;;;;;17.67;4.90;;;;;;;8.80;88.11;101089.44;5098036;28;20044;-73
2021/03/15 03:54:15;;;;;;;20.23;5.45;;;;;;;8.85;87.61;101081.19;5081172;28;20059;-71
2021/03/15 03:57:05;;;;;;;14.57;5.00;;;;;;;8.76;87.86;101077.44;5080944;28;20051;-73
2021/03/15 03:59:35;;;;;;;16.35;4.70;;;;;;;8.80;88.12;101072.97;5080139;28;20044;-72
2021/03/15 04:02:03;;;;;;;16.75;6.00;;;;;;;8.74;88.09;101074.16;5114156;28;20056;-72
2021/03/15 04:04:48;;;;;;;23.20;6.47;;;;;;;8.68;88.10;101077.28;5081182;28;20059;-72
2021/03/15 04:07:20;;;;;;;24.17;6.55;;;;;;;8.66;88.79;101071.25;5096985;28;20063;-75
2021/03/15 04:09:47;;;;;;;23.00;6.88;;;;;;;8.81;88.83;101076.53;5079619;28;20048;-72
2021/03/15 04:12:19;;;;;;;18.55;6.45;;;;;;;8.86;88.16;101080.06;5080901;28;20048;-73
2021/03/15 04:14:50;;;;;;;26.85;7.15;;;;;;;8.89;88.10;101078.66;5098417;28;20052;-72
2021/03/15 04:17:22;;;;;;;26.27;7.65;;;;;;;8.92;87.96;101078.06;5080793;28;20052;-75
2021/03/15 04:19:54;;;;;;;29.02;9.05;;;;;;;8.89;88.33;101079.47;5046984;28;20522;-71
2021/03/15 04:22:27;;;;;;;31.90;9.13;;;;;;;8.89;88.15;101084.97;5080975;28;20394;-72
2021/03/15 04:24:56;;;;;;;20.05;7.78;;;;;;;9.05;88.01;101085.59;5081187;28;20056;-71
2021/03/15 04:27:24;;;;;;;22.25;8.02;;;;;;;8.87;88.46;101084.44;5063542;28;20048;-75
2021/03/15 04:29:52;;;;;;;22.60;8.48;;;;;;;8.81;89.57;101082.88;5078752;28;20052;-70
2021/03/15 04:32:20;;;;;;;25.63;8.48;;;;;;;8.94;89.60;101097.84;5080781;28;20044;-74
2021/03/15 04:34:48;;;;;;;26.75;9.27;;;;;;;8.97;89.54;101086.25;5080396;28;20055;-74
2021/03/15 04:37:15;;;;;;;24.23;9.57;;;;;;;9.00;89.27;101099.38;5080861;28;20055;-79
2021/03/15 04:39:42;;;;;;;31.42;10.25;;;;;;;8.98;89.09;101096.13;5081665;28;20048;-75
2021/03/15 04:42:09;;;;;;;30.88;10.10;;;;;;;8.97;89.17;101100.81;5081519;28;20482;-75
2021/03/15 04:44:40;;;;;;;35.70;10.02;;;;;;;9.05;89.50;101100.16;5080854;28;20052;-75
2021/03/15 04:47:08;;;;;;;30.65;10.90;;;;;;;9.09;88.83;101097.63;5079303;28;20059;-76
2021/03/15 04:49:37;;;;;;;32.90;10.57;;;;;;;9.20;88.54;101098.31;5063645;28;20051;-74
2021/03/15 04:52:05;;;;;;;25.83;10.63;;;;;;;9.29;88.06;101093.81;5097917;28;20044;-75
2021/03/15 04:54:33;;;;;;;25.90;10.70;;;;;;;9.08;88.58;101099.56;5076322;28;20036;-73
2021/03/15 04:57:01;;;;;;;31.20;9.98;;;;;;;9.34;89.06;101091.81;5094792;28;20055;-75
2021/03/15 05:03:52;;;;;;;28.42;9.57;;;;;;;9.29;88.55;101094.63;5095364;28;20043;-75
2021/03/15 05:06:20;;;;;;;36.33;11.15;;;;;;;9.19;88.28;101105.75;5077063;28;20059;-76
2021/03/15 05:08:49;;;;;;;37.17;11.70;;;;;;;9.07;89.34;101103.44;5094844;28;20047;-73
2021/03/15 05:11:19;;;;;;;41.15;11.65;;;;;;;9.07;89.71;101106.16;5076912;28;20048;-68
2021/03/15 05:13:46;;;;;;;32.58;12.27;;;;;;;9.16;89.03;101111.84;5094727;28;20044;-73
2021/03/15 05:16:13;;;;;;;33.72;11.23;;;;;;;8.96;90.39;101112.91;5077481;28;20055;-76
2021/03/15 05:18:41;;;;;;;32.28;11.20;;;;;;;8.96;90.47;101129.38;5077055;28;20048;-77
2021/03/15 05:21:08;;;;;;;33.15;11.55;;;;;;;8.79;91.03;101137.28;5077099;28;20390;-74
2021/03/15 05:23:37;;;;;;;31.50;11.48;;;;;;;8.81;91.60;101145.22;5076770;28;20052;-74
2021/03/15 05:26:04;;;;;;;36.90;11.17;;;;;;;8.69;92.12;101137.38;5076475;28;20113;-75
2021/03/15 05:28:33;;;;;;;33.08;12.63;;;;;;;8.66;92.78;101134.41;5076926;28;20044;-73
2021/03/15 05:31:03;;;;;;;34.25;12.43;;;;;;;8.77;91.78;101134.00;5095180;28;20535;-77
2021/03/15 05:33:31;;;;;;;37.20;12.02;;;;;;;8.68;91.77;101138.47;5076345;28;20052;-78
2021/03/15 05:35:59;;;;;;;31.52;11.20;;;;;;;8.76;91.73;101131.53;5076828;28;20047;-77
2021/03/15 05:38:39;;;;;;;34.13;11.30;;;;;;;8.73;91.13;101126.63;5094707;28;20051;-77
2021/03/15 05:41:11;;;;;;;29.17;10.88;;;;;;;8.67;90.90;101139.59;5060026;28;20044;-78
2021/03/15 05:44:06;;;;;;;35.40;10.98;;;;;;;8.84;90.65;101145.44;5078071;28;20055;-75
2021/03/15 05:47:04;;;;;;;30.63;9.65;;;;;;;8.76;90.04;101150.75;5095815;28;20044;-78
2021/03/15 05:50:02;;;;;;;25.10;9.45;;;;;;;8.65;90.13;101150.06;5078480;28;20107;-76
2021/03/15 05:53:08;;;;;;;25.02;8.88;;;;;;;8.60;91.00;101154.78;5078424;28;20051;-72
2021/03/15 05:55:55;;;;;;;30.15;10.63;;;;;;;8.73;90.78;101138.44;5078430;28;20494;-74
2021/03/15 06:03:13;;;;;;;27.42;8.32;;;;;;;8.80;89.29;101140.84;5096814;28;20427;-79
2021/03/15 06:05:44;;;;;;;29.50;8.25;;;;;;;8.92;89.05;101144.84;5042730;28;20048;-78
2021/03/15 06:08:22;;;;;;;20.85;8.60;;;;;;;8.91;89.12;101142.34;5077321;28;20052;-79
2021/03/15 06:11:04;;;;;;;25.90;7.80;;;;;;;8.94;88.57;101145.34;5076217;28;20048;-76
2021/03/15 06:13:33;;;;;;;26.83;8.30;;;;;;;8.83;87.77;101146.56;5075361;28;20052;-76
2021/03/15 06:16:01;;;;;;;27.98;8.20;;;;;;;8.86;87.84;101145.97;5079491;28;20055;-72
2021/03/15 06:18:38;;;;;;;27.48;8.13;;;;;;;8.76;88.16;101159.00;5094421;28;20059;-75
2021/03/15 06:21:10;;;;;;;23.98;7.22;;;;;;;8.57;88.91;101150.69;5093627;28;20059;-76
2021/03/15 06:23:38;;;;;;;23.50;7.60;;;;;;;8.66;88.84;101156.38;5074856;28;20394;-77
2021/03/15 06:26:07;;;;;;;26.58;7.60;;;;;;;8.60;88.65;101163.84;5075835;28;20040;-74
2021/03/15 06:28:34;;;;;;;25.15;7.30;;;;;;;8.64;88.67;101158.59;5059264;28;20052;-74
2021/03/15 06:31:02;;;;;;;24.25;7.13;;;;;;;8.68;88.81;101159.66;5092940;28;20056;-77
2021/03/15 06:33:29;;;;;;;20.20;7.40;;;;;;;8.74;88.80;101151.06;5093565;28;20056;-74
2021/03/15 06:36:00;;;;;;;19.80;6.95;;;;;;;8.85;88.08;101160.84;5094929;28;20394;-75
2021/03/15 06:38:29;;;;;;;20.17;6.35;;;;;;;8.59;89.29;101166.88;5096583;28;20390;-74
2021/03/15 06:41:04;;;;;;;19.90;6.03;;;;;;;8.59;88.84;101170.44;5075931;28;20398;-71
2021/03/15 06:43:32;;;;;;;25.98;6.45;;;;;;;8.60;88.88;101183.06;5093132;28;20055;-77
2021/03/15 06:46:00;;;;;;;21.30;6.78;;;;;;;8.49;90.45;101183.44;5074933;28;20056;-71
2021/03/15 06:48:27;;;;;;;26.25;7.90;;;;;;;8.39;91.94;101180.75;5093905;28;20052;-76
2021/03/15 06:50:55;;;;;;;20.33;6.78;;;;;;;8.41;92.49;101195.84;5093626;28;20055;-79
2021/03/15 06:53:24;;;;;;;25.88;7.95;;;;;;;8.40;93.67;101182.44;5093164;28;20044;-68
2021/03/15 06:55:53;;;;;;;19.25;5.88;;;;;;;8.20;91.22;101191.59;5075488;28;20059;-76
2021/03/15 06:58:26;;;;;;;18.15;5.93;;;;;;;8.23;90.25;101198.47;5094894;28;20051;-74
2021/03/15 07:01:07;;;;;;;27.05;5.93;;;;;;;8.37;89.85;101185.75;5076292;28;20051;-65
2021/03/15 07:03:35;;;;;;;25.83;7.35;;;;;;;8.36;91.07;101206.06;5076761;28;20071;-80
2021/03/15 07:06:04;;;;;;;23.75;7.75;;;;;;;8.30;91.88;101197.03;5077106;28;20056;-72
2021/03/15 07:08:33;;;;;;;28.38;9.35;;;;;;;8.24;93.15;101206.44;5076546;28;20055;-69
2021/03/15 07:11:23;;;;;;;22.83;8.80;;;;;;;8.37;93.52;101218.69;5094975;28;20053;-72
2021/03/15 07:13:50;;;;;;;26.30;8.20;;;;;;;8.50;92.88;101229.81;5076386;28;20059;-70
2021/03/15 07:16:30;;;;;;;23.90;7.85;;;;;;;8.46;88.64;101305.63;5091085;28;20059;-66
2021/03/15 07:19:01;;;;;;;10.90;3.88;;;;;;;8.04;86.68;101231.22;5108772;28;20044;-68
2021/03/15 07:21:34;;;;;;;14.85;3.88;;;;;;;8.05;84.97;101230.13;5093381;28;20055;-67
2021/03/15 07:24:08;;;;;;;13.05;4.30;;;;;;;8.23;84.32;101223.16;5062346;28;20052;-74
2021/03/15 07:26:39;;;;;;;17.95;4.97;;;;;;;8.26;85.60;101234.41;5072506;28;20062;-77
2021/03/15 07:29:17;;;;;;;14.70;5.80;;;;;;;8.43;86.19;101243.06;5098131;28;20048;-70
2021/03/15 07:31:48;;;;;;;21.13;6.15;;;;;;;8.47;86.08;101240.56;5092715;28;20052;-74
2021/03/15 07:34:21;;;;;;;22.50;6.00;;;;;;;8.44;85.34;101239.19;5056635;28;20059;-67
2021/03/15 07:36:48;;;;;;;28.00;8.02;;;;;;;8.49;85.30;101260.31;5092485;28;20172;-66
2021/03/15 07:39:16;;;;;;;19.08;6.18;;;;;;;8.43;86.80;101259.53;5091720;28;20052;-65
2021/03/15 07:41:52;;;;;;;21.23;6.43;;;;;;;8.41;86.42;101255.41;5072918;28;20040;-68
2021/03/15 07:44:30;;;;;;;28.70;7.35;;;;;;;8.31;86.40;101250.00;5057374;28;20051;-66
2021/03/15 07:47:04;;;;;;;23.55;6.18;;;;;;;8.38;84.91;101258.75;5073571;28;20040;-74
2021/03/15 07:49:37;;;;;;;21.05;5.72;;;;;;;8.38;84.56;101269.72;5107403;28;20048;-73
2021/03/15 07:52:08;;;;;;;21.63;5.88;;;;;;;8.33;85.41;101281.56;5091811;28;20410;-76
2021/03/15 07:54:39;;;;;;;18.67;5.57;;;;;;;8.43;84.87;101272.44;5073387;28;20071;-76
2021/03/15 07:57:13;;;;;;;15.40;5.38;;;;;;;8.43;83.93;101283.41;5074207;28;20053;-77
2021/03/15 07:59:41;;;;;;;20.85;5.38;;;;;;;8.62;83.91;101296.16;5069997;28;20052;-73
2021/03/15 08:02:17;;;;;;;18.48;5.03;;;;;;;8.65;82.98;101295.59;5091376;28;20055;-71
2021/03/15 08:04:44;;;;;;;18.15;4.85;;;;;;;8.33;82.60;101302.69;5056317;28;20063;-69
2021/03/15 08:07:13;;;;;;;16.88;4.90;;;;;;;8.34;83.30;101291.44;5074084;28;20051;-70
2021/03/15 08:09:42;;;;;;;17.50;4.18;;;;;;;8.19;84.28;101293.41;5091586;28;20044;-71
2021/03/15 08:12:10;;;;;;;20.17;5.38;;;;;;;8.24;83.58;101309.88;5090942;28;20060;-69
2021/03/15 08:14:39;;;;;;;18.52;4.53;;;;;;;8.21;83.02;101313.97;5090722;28;20049;-69
2021/03/15 08:17:09;;;;;;;20.95;5.28;;;;;;;8.15;82.84;101315.13;5090399;28;20047;-70
2021/03/15 08:19:37;;;;;;;17.13;4.80;;;;;;;8.28;83.73;101308.22;5057270;28;20048;-65
2021/03/15 08:22:07;;;;;;;20.53;5.33;;;;;;;8.28;83.36;101313.72;5073265;28;20055;-69
2021/03/15 08:24:37;;;;;;;17.67;4.97;;;;;;;8.35;83.36;101320.50;5057267;28;20795;-67
2021/03/15 08:27:05;;;;;;;13.43;4.43;;;;;;;8.54;82.73;101315.19;5091526;28;20074;-71
2021/03/15 08:29:36;;;;;;;16.67;4.88;;;;;;;8.78;82.21;101322.41;5094191;28;20052;-68
2021/03/15 08:32:05;;;;;;;18.75;4.93;;;;;;;8.68;80.87;101327.16;5077219;28;20044;-70
2021/03/15 08:34:35;;;;;;;16.05;4.32;;;;;;;8.66;81.38;101326.63;5060096;28;20433;-66
2021/03/15 08:37:03;;;;;;;17.65;4.88;;;;;;;8.61;81.12;101329.41;5077252;28;20052;-69
2021/03/15 08:39:30;;;;;;;16.88;4.70;;;;;;;8.60;81.56;101336.81;5094775;28;20048;-73
2021/03/15 08:42:21;;;;;;;14.13;5.03;;;;;;;8.88;82.27;101327.81;5060501;28;20067;-71
2021/03/15 08:45:27;;;;;;;25.00;4.85;;;;;;;8.80;81.17;101322.91;5052623;28;20052;-67
2021/03/15 08:48:00;;;;;;;22.83;6.13;;;;;;;8.80;81.27;101327.63;5047685;28;20052;-67
2021/03/15 08:50:33;;;;;;;18.48;5.45;;;;;;;8.76;82.38;101326.53;5036487;28;20552;-68
2021/03/15 08:53:01;;;;;;;25.42;5.60;;;;;;;8.94;81.30;101331.34;5051001;28;20107;-68
2021/03/15 08:55:47;;;;;;;23.05;5.85;;;;;;;9.00;81.36;101339.25;5069924;28;20053;-67
2021/03/15 08:58:36;;;;;;;24.80;6.55;;;;;;;9.00;81.43;101341.16;5052672;28;20052;-70
2021/03/15 09:01:04;;;;;;;19.58;5.45;;;;;;;9.07;80.88;101350.72;5052160;28;20053;-70
2021/03/15 09:03:59;;;;;;;25.85;6.10;;;;;;;8.99;81.27;101347.78;5036668;28;20056;-67
2021/03/15 09:06:29;;;;;;;24.10;6.78;;;;;;;9.21;81.90;101353.63;5053218;28;20061;-69
2021/03/15 09:09:04;;;;;;;25.15;6.28;;;;;;;8.99;81.89;101365.09;5020006;28;20049;-67
2021/03/15 09:11:34;;;;;;;22.15;6.60;;;;;;;9.05;81.73;101365.84;5035491;28;20064;-70
2021/03/15 09:14:14;;;;;;;25.83;6.63;;;;;;;9.17;81.24;101363.56;5049975;28;20544;-64
2021/03/15 09:16:45;;;;;;;24.38;6.43;;;;;;;9.26;80.68;101374.78;5049561;28;20048;-66
2021/03/15 09:19:18;;;;;;;21.13;6.78;;;;;;;9.30;80.01;101375.81;5049030;28;20456;-66
2021/03/15 09:22:05;;;;;;;28.25;6.75;;;;;;;9.47;79.19;101374.28;5070184;28;20407;-66
2021/03/15 09:24:45;;;;;;;20.05;5.85;;;;;;;9.64;77.83;101379.34;5094739;28;20475;-68
2021/03/15 09:27:27;;;;;;;18.95;6.20;;;;;;;9.60;77.52;101367.28;5094697;28;20067;-67
2021/03/15 09:34:19;;;;;;;18.30;5.18;;;;;;;9.61;74.04;101374.41;5094699;28;20051;-68
2021/03/15 09:36:59;;;;;;;22.80;5.95;;;;;;;9.78;74.48;101380.28;5077849;28;20131;-67
2021/03/15 09:39:29;;;;;;;24.23;6.25;;;;;;;9.83;73.11;101369.22;5075382;28;20048;-65
2021/03/15 09:41:58;;;;;;;24.63;5.80;;;;;;;10.00;73.85;101372.31;5076825;28;20475;-67
2021/03/15 09:44:32;;;;;;;24.38;5.97;;;;;;;9.98;72.93;101382.81;5076896;28;20096;-68
2021/03/15 09:47:03;;;;;;;17.75;5.63;;;;;;;9.83;72.61;101383.78;5058687;28;20063;-68
2021/03/15 09:49:41;;;;;;;27.17;5.90;;;;;;;10.02;72.58;101381.09;5076089;28;20044;-66
2021/03/15 09:52:22;;;;;;;24.80;5.80;;;;;;;9.78;71.96;101377.53;5076261;28;20062;-66
2021/03/15 09:55:04;;;;;;;29.85;6.28;;;;;;;9.90;72.39;101365.00;5058904;28;20052;-70
2021/03/15 09:57:33;;;;;;;21.50;5.85;;;;;;;9.97;72.54;101368.22;5073387;28;20121;-67
2021/03/15 10:04:56;;;;;;;31.08;6.35;;;;;;;9.87;71.43;101389.53;5094111;28;20052;-68
2021/03/15 10:07:55;;;;;;;30.52;6.75;;;;;;;9.91;71.52;101368.56;5012158;28;20068;-67
2021/03/15 10:10:45;;;;;;;;;;;;;;;9.99;70.21;101385.25;5031644;28;20068;-70
2021/03/15 10:13:34;;;;;;;30.25;6.97;;;;;;;10.04;70.04;101354.91;5031320;28;19931;-67
2021/03/15 10:20:50;;;;;;;24.77;5.80;;;;;;;10.01;69.04;101350.00;5031598;28;20049;-67
2021/03/15 10:23:41;;;;;;;31.17;4.72;;;;;;;10.21;67.77;101368.25;5018661;28;20053;-69
2021/03/15 10:26:10;;;;;;;24.27;5.78;;;;;;;10.35;66.99;101371.91;5015245;28;20080;-68
2021/03/15 10:28:48;;;;;;;18.02;4.82;;;;;;;10.32;66.43;101389.00;5013915;28;20045;-68
2021/03/15 10:35:52;;;;;;;25.63;4.93;;;;;;;9.99;67.91;101384.44;5028964;28;20410;-69
2021/03/15 10:38:27;;;;;;;16.67;4.35;;;;;;;9.93;67.14;101402.13;5012614;28;20053;-67
2021/03/15 10:41:03;;;;;;;17.67;4.38;;;;;;;9.89;67.55;101392.81;4998712;28;20049;-66
2021/03/15 10:43:32;;;;;;;14.50;3.92;;;;;;;9.92;66.82;101452.78;5014113;28;20056;-68
2021/03/15 10:50:23;;;;;;;18.75;4.78;;;;;;;10.10;67.04;101421.78;5054943;28;20048;-68
2021/03/15 10:53:22;;;;;;;23.38;4.45;;;;;;;10.23;66.42;101421.06;5072803;28;20055;-69
2021/03/15 10:56:17;;;;;;;18.00;4.55;;;;;;;10.10;67.52;101419.84;5056253;28;20056;-69
2021/03/15 10:58:52;;;;;;;19.27;5.22;;;;;;;10.15;67.24;101406.03;5055414;28;20040;-68
2021/03/15 11:06:10;;;;;;;19.70;4.43;;;;;;;9.80;68.87;101411.88;5038435;28;20056;-72
2021/03/15 11:08:37;;;;;;;17.40;5.13;;;;;;;10.00;69.25;101408.09;5021694;28;20048;-78
2021/03/15 11:11:20;;;;;;;21.98;4.40;;;;;;;9.91;69.14;101440.13;5054610;28;20049;-77
2021/03/15 11:13:57;;;;;;;19.88;4.95;;;;;;;9.87;69.62;101420.63;5040866;28;20048;-76
2021/03/15 11:20:55;;;;;;;14.00;4.00;;;;;;;10.25;68.06;101404.25;5055452;28;20048;-76
2021/03/15 11:23:34;;;;;;;14.27;4.68;;;;;;;10.41;68.46;101403.75;5075039;28;20052;-71
2021/03/15 11:26:17;;;;;;;12.60;3.60;;;;;;;10.45;67.80;101412.25;5057777;28;20043;-76
2021/03/15 11:28:51;;;;;;;12.98;3.78;;;;;;;10.43;66.79;101411.72;5057952;28;20037;-74
2021/03/15 11:36:23;;;;;;;13.32;3.65;;;;;;;10.34;66.11;101430.03;4991912;28;20050;-75
2021/03/15 11:39:02;;;;;;;15.25;3.35;;;;;;;10.24;67.33;101425.47;4992163;28;20051;-70
2021/03/15 11:41:57;;;;;;;14.30;4.22;;;;;;;9.91;69.03;101434.63;4997013;28;20081;-71
2021/03/15 11:44:36;;;;;;;9.73;3.30;;;;;;;9.76;68.47;101438.34;4993867;28;20046;-68
2021/03/15 11:51:53;;;;;;;11.98;3.20;;;;;;;9.64;66.64;101448.91;5010987;28;20049;-70
2021/03/15 11:54:32;;;;;;;16.92;3.45;;;;;;;9.89;66.28;101451.41;4994782;28;20057;-74
2021/03/15 11:57:00;;;;;;;11.68;3.70;;;;;;;9.91;66.11;101451.13;5011110;28;20489;-75
2021/03/15 11:59:37;;;;;;;10.43;3.05;;;;;;;10.02;67.46;101445.22;5011175;28;20489;-72
2021/03/15 12:06:38;;;;;;;8.07;3.00;;;;;;;10.04;68.40;101461.47;5028706;28;20052;-68
2021/03/15 12:09:16;;;;;;;15.07;3.22;;;;;;;10.08;67.36;101454.25;5085711;28;20045;-73
2021/03/15 12:11:53;;;;;;;9.95;2.75;;;;;;;9.88;67.50;101468.22;5059193;28;20048;-70
2021/03/15 12:14:22;;;;;;;8.07;2.63;;;;;;;9.62;66.81;101489.66;5058424;28;20049;-70
2021/03/15 12:21:22;;;;;;;9.43;2.33;;;;;;;9.39;69.21;101492.31;5036601;28;20051;-72
2021/03/15 12:24:09;;;;;;;8.40;2.42;;;;;;;9.23;70.16;101504.53;5073738;28;20394;-71
2021/03/15 12:26:49;;;;;;;8.75;2.83;;;;;;;9.44;70.87;101500.53;5057860;28;20060;-70
2021/03/15 12:29:37;;;;;;;8.25;2.65;;;;;;;9.18;70.85;101491.63;5058384;28;20063;-68
2021/03/15 12:36:32;;;;;;;8.23;2.33;;;;;;;9.57;70.30;101491.63;5093000;28;20048;-72
2021/03/15 12:39:06;;;;;;;9.65;2.50;;;;;;;9.71;69.20;101501.66;5059548;28;20063;-71
2021/03/15 12:41:38;;;;;;;11.43;2.67;;;;;;;9.59;67.81;101494.91;5092477;28;20051;-68
2021/03/15 12:44:12;;;;;;;9.82;2.40;;;;;;;9.39;68.70;101508.81;5058994;28;20048;-69
2021/03/15 12:51:18;;;;;;;8.45;2.90;;;;;;;9.09;69.82;101518.06;5074591;28;20067;-69
2021/03/15 12:53:45;;;;;;;12.95;3.28;;;;;;;9.17;69.84;101517.47;5095239;28;20044;-70
2021/03/15 12:56:31;;;;;;;7.38;2.60;;;;;;;9.44;69.75;101512.34;5079217;28;20063;-70
2021/03/15 12:59:03;;;;;;;8.80;2.65;;;;;;;9.32;69.42;101522.06;5071453;28;20056;-73
2021/03/15 13:01:44;;;;;;;10.57;2.30;;;;;;;9.20;67.83;101511.41;5078211;28;20051;-70
2021/03/15 13:04:13;;;;;;;9.63;2.85;;;;;;;9.22;69.07;101528.47;5072796;28;20048;-70
2021/03/15 13:06:43;;;;;;;9.02;2.65;;;;;;;9.12;68.50;101527.69;5044154;28;20075;-70
2021/03/15 13:09:33;;;;;;;7.80;2.83;;;;;;;9.13;68.25;101523.81;5063878;28;20052;-71
2021/03/15 13:12:07;;;;;;;6.15;2.25;;;;;;;8.97;68.74;101545.91;5078376;28;20048;-71
2021/03/15 13:14:58;;;;;;;10.05;2.58;;;;;;;9.01;68.75;101529.69;5077655;28;20177;-73
2021/03/15 13:22:36;;;;;;;8.10;2.30;;;;;;;9.23;67.11;101532.84;5095490;28;20047;-70